sensor_id;sensor_type;location;lat;lon;timestamp;temperature;humidity
58983;DHT22;44771;49.982;8.560;2022-11-15T00:02:54;6.20;99.90
58983;DHT22;44771;49.982;8.560;2022-11-15T00:07:58;6.00;99.90
58983;DHT22;44771;49.982;8.560;2022-11-15T00:13:05;5.90;99.90
58983;DHT22;44771;49.982;8.560;2022-11-15T00:18:15;5.80;99.90
58983;DHT22;44771;49.982;8.560;2022-11-15T00:23:22;5.80;99.90
58983;DHT22;44771;49.982;8.560;2022-11-15T00:28:24;5.90;99.90
58983;DHT22;44771;49.982;8.560;2022-11-15T00:33:26;5.90;99.90
58983;DHT22;44771;49.982;8.560;2022-11-15T00:38:37;6.10;99.90
58983;DHT22;44771;49.982;8.560;2022-11-15T00:43:43;6.20;99.90
58983;DHT22;44771;49.982;8.560;2022-11-15T00:49:10;6.30;99.90
58983;DHT22;44771;49.982;8.560;2022-11-15T00:54:31;6.50;99.90
58983;DHT22;44771;49.982;8.560;2022-11-15T00:59:42;6.70;99.90
58983;DHT22;44771;49.982;8.560;2022-11-15T01:04:52;6.80;99.90
58983;DHT22;44771;49.982;8.560;2022-11-15T01:10:20;6.80;99.90
58983;DHT22;44771;49.982;8.560;2022-11-15T01:15:42;6.80;99.90
58983;DHT22;44771;49.982;8.560;2022-11-15T01:20:50;6.70;99.90
58983;DHT22;44771;49.982;8.560;2022-11-15T01:26:04;6.60;99.90
58983;DHT22;44771;49.982;8.560;2022-11-15T01:31:18;6.60;99.90
58983;DHT22;44771;49.982;8.560;2022-11-15T01:36:22;6.60;99.90
58983;DHT22;44771;49.982;8.560;2022-11-15T01:41:30;6.70;99.90
58983;DHT22;44771;49.982;8.560;2022-11-15T01:46:51;6.60;99.90
58983;DHT22;44771;49.982;8.560;2022-11-15T01:58:14;6.80;99.90
58983;DHT22;44771;49.982;8.560;2022-11-15T02:03:48;6.80;99.90
58983;DHT22;44771;49.982;8.560;2022-11-15T02:09:26;6.90;99.90
58983;DHT22;44771;49.982;8.560;2022-11-15T02:14:56;7.00;99.90
58983;DHT22;44771;49.982;8.560;2022-11-15T02:20:45;6.90;99.90
58983;DHT22;44771;49.982;8.560;2022-11-15T02:26:00;7.00;99.90
58983;DHT22;44771;49.982;8.560;2022-11-15T02:31:25;7.10;99.90
58983;DHT22;44771;49.982;8.560;2022-11-15T02:36:49;7.10;99.90
58983;DHT22;44771;49.982;8.560;2022-11-15T02:42:28;7.00;99.90
58983;DHT22;44771;49.982;8.560;2022-11-15T02:53:26;6.90;99.90
58983;DHT22;44771;49.982;8.560;2022-11-15T02:59:00;6.80;99.90
58983;DHT22;44771;49.982;8.560;2022-11-15T03:04:24;6.60;99.90
58983;DHT22;44771;49.982;8.560;2022-11-15T03:15:51;6.60;99.90
58983;DHT22;44771;49.982;8.560;2022-11-15T03:21:09;6.70;99.90
58983;DHT22;44771;49.982;8.560;2022-11-15T03:26:16;6.70;99.90
58983;DHT22;44771;49.982;8.560;2022-11-15T03:31:22;6.80;99.90
58983;DHT22;44771;49.982;8.560;2022-11-15T03:36:29;6.70;99.90
58983;DHT22;44771;49.982;8.560;2022-11-15T03:41:39;6.70;99.90
58983;DHT22;44771;49.982;8.560;2022-11-15T03:46:46;6.80;99.90
58983;DHT22;44771;49.982;8.560;2022-11-15T03:51:56;6.80;99.90
58983;DHT22;44771;49.982;8.560;2022-11-15T03:56:59;6.90;99.90
58983;DHT22;44771;49.982;8.560;2022-11-15T04:02:14;7.00;99.90
58983;DHT22;44771;49.982;8.560;2022-11-15T04:07:21;7.20;99.90
58983;DHT22;44771;49.982;8.560;2022-11-15T04:12:33;7.20;99.90
58983;DHT22;44771;49.982;8.560;2022-11-15T04:17:39;7.30;99.90
58983;DHT22;44771;49.982;8.560;2022-11-15T04:23:02;7.30;99.90
58983;DHT22;44771;49.982;8.560;2022-11-15T04:28:13;7.30;99.90
58983;DHT22;44771;49.982;8.560;2022-11-15T04:38:41;7.40;99.90
58983;DHT22;44771;49.982;8.560;2022-11-15T04:43:43;7.40;99.90
58983;DHT22;44771;49.982;8.560;2022-11-15T04:48:55;7.50;99.90
58983;DHT22;44771;49.982;8.560;2022-11-15T04:54:01;7.50;99.90
58983;DHT22;44771;49.982;8.560;2022-11-15T04:59:03;7.50;99.90
58983;DHT22;44771;49.982;8.560;2022-11-15T05:04:05;7.50;99.90
58983;DHT22;44771;49.982;8.560;2022-11-15T05:09:08;7.60;99.90
58983;DHT22;44771;49.982;8.560;2022-11-15T05:14:10;7.70;99.90
58983;DHT22;44771;49.982;8.560;2022-11-15T05:19:12;7.60;99.90
58983;DHT22;44771;49.982;8.560;2022-11-15T05:24:15;7.70;99.90
58983;DHT22;44771;49.982;8.560;2022-11-15T05:29:17;7.80;99.90
58983;DHT22;44771;49.982;8.560;2022-11-15T05:34:19;7.80;99.90
58983;DHT22;44771;49.982;8.560;2022-11-15T05:39:25;8.00;99.90
58983;DHT22;44771;49.982;8.560;2022-11-15T05:44:28;8.10;99.90
58983;DHT22;44771;49.982;8.560;2022-11-15T05:49:31;8.30;99.90
58983;DHT22;44771;49.982;8.560;2022-11-15T05:54:37;8.40;99.90
58983;DHT22;44771;49.982;8.560;2022-11-15T05:59:40;8.60;99.90
58983;DHT22;44771;49.982;8.560;2022-11-15T06:04:43;8.70;99.90
58983;DHT22;44771;49.982;8.560;2022-11-15T06:09:46;8.70;99.90
58983;DHT22;44771;49.982;8.560;2022-11-15T06:14:48;8.60;99.90
58983;DHT22;44771;49.982;8.560;2022-11-15T06:19:49;8.60;99.90
58983;DHT22;44771;49.982;8.560;2022-11-15T06:24:52;8.50;99.90
58983;DHT22;44771;49.982;8.560;2022-11-15T06:35:17;8.40;99.90
58983;DHT22;44771;49.982;8.560;2022-11-15T06:40:20;8.50;99.90
58983;DHT22;44771;49.982;8.560;2022-11-15T06:45:22;8.50;99.90
58983;DHT22;44771;49.982;8.560;2022-11-15T06:50:24;8.50;99.90
58983;DHT22;44771;49.982;8.560;2022-11-15T06:55:27;8.50;99.90
58983;DHT22;44771;49.982;8.560;2022-11-15T07:00:29;8.40;99.90
58983;DHT22;44771;49.982;8.560;2022-11-15T07:05:31;8.30;99.90
58983;DHT22;44771;49.982;8.560;2022-11-15T07:10:34;8.20;99.90
58983;DHT22;44771;49.982;8.560;2022-11-15T07:15:36;8.20;99.90
58983;DHT22;44771;49.982;8.560;2022-11-15T07:20:38;8.30;99.90
58983;DHT22;44771;49.982;8.560;2022-11-15T07:25:41;8.70;99.90
58983;DHT22;44771;49.982;8.560;2022-11-15T07:30:44;9.20;99.90
58983;DHT22;44771;49.982;8.560;2022-11-15T07:35:46;9.30;99.90
58983;DHT22;44771;49.982;8.560;2022-11-15T07:40:56;9.30;99.90
58983;DHT22;44771;49.982;8.560;2022-11-15T07:45:58;9.30;99.90
58983;DHT22;44771;49.982;8.560;2022-11-15T07:51:00;9.40;99.90
58983;DHT22;44771;49.982;8.560;2022-11-15T07:56:05;9.40;99.90
58983;DHT22;44771;49.982;8.560;2022-11-15T08:01:09;9.60;99.90
58983;DHT22;44771;49.982;8.560;2022-11-15T08:06:11;9.70;99.90
58983;DHT22;44771;49.982;8.560;2022-11-15T08:11:15;9.80;99.90
58983;DHT22;44771;49.982;8.560;2022-11-15T08:16:19;10.00;99.90
58983;DHT22;44771;49.982;8.560;2022-11-15T08:21:22;10.10;99.90
58983;DHT22;44771;49.982;8.560;2022-11-15T08:26:26;10.20;99.90
58983;DHT22;44771;49.982;8.560;2022-11-15T08:31:28;10.30;99.90
58983;DHT22;44771;49.982;8.560;2022-11-15T08:36:32;10.40;99.90
58983;DHT22;44771;49.982;8.560;2022-11-15T08:41:51;10.40;99.90
58983;DHT22;44771;49.982;8.560;2022-11-15T08:46:53;10.40;99.90
58983;DHT22;44771;49.982;8.560;2022-11-15T08:51:55;10.50;99.90
58983;DHT22;44771;49.982;8.560;2022-11-15T08:57:01;10.60;99.90
58983;DHT22;44771;49.982;8.560;2022-11-15T09:02:04;10.70;99.90
58983;DHT22;44771;49.982;8.560;2022-11-15T09:07:06;10.80;99.90
58983;DHT22;44771;49.982;8.560;2022-11-15T09:12:09;11.00;99.90
58983;DHT22;44771;49.982;8.560;2022-11-15T09:17:14;11.00;99.90
58983;DHT22;44771;49.982;8.560;2022-11-15T09:22:30;11.10;99.90
58983;DHT22;44771;49.982;8.560;2022-11-15T09:27:34;11.10;99.90
58983;DHT22;44771;49.982;8.560;2022-11-15T09:32:42;11.10;99.90
58983;DHT22;44771;49.982;8.560;2022-11-15T09:37:52;11.10;99.90
58983;DHT22;44771;49.982;8.560;2022-11-15T09:43:08;11.10;99.90
58983;DHT22;44771;49.982;8.560;2022-11-15T09:53:49;11.30;99.90
58983;DHT22;44771;49.982;8.560;2022-11-15T09:59:37;11.40;99.90
58983;DHT22;44771;49.982;8.560;2022-11-15T10:04:46;11.70;99.90
58983;DHT22;44771;49.982;8.560;2022-11-15T10:09:53;11.90;99.90
58983;DHT22;44771;49.982;8.560;2022-11-15T10:15:13;12.00;99.90
58983;DHT22;44771;49.982;8.560;2022-11-15T10:20:21;12.00;99.90
58983;DHT22;44771;49.982;8.560;2022-11-15T10:25:24;11.90;99.90
58983;DHT22;44771;49.982;8.560;2022-11-15T10:30:34;11.90;99.90
58983;DHT22;44771;49.982;8.560;2022-11-15T10:35:36;11.80;99.90
58983;DHT22;44771;49.982;8.560;2022-11-15T10:40:40;11.70;99.90
58983;DHT22;44771;49.982;8.560;2022-11-15T10:45:46;11.70;99.90
58983;DHT22;44771;49.982;8.560;2022-11-15T10:50:53;11.70;99.90
58983;DHT22;44771;49.982;8.560;2022-11-15T10:56:00;11.80;99.90
58983;DHT22;44771;49.982;8.560;2022-11-15T11:01:14;11.70;99.90
58983;DHT22;44771;49.982;8.560;2022-11-15T11:06:17;11.70;99.90
58983;DHT22;44771;49.982;8.560;2022-11-15T11:11:19;11.70;99.90
58983;DHT22;44771;49.982;8.560;2022-11-15T11:16:44;11.80;99.90
58983;DHT22;44771;49.982;8.560;2022-11-15T11:21:58;11.90;99.90
58983;DHT22;44771;49.982;8.560;2022-11-15T11:27:18;12.00;99.90
58983;DHT22;44771;49.982;8.560;2022-11-15T11:38:15;12.30;99.90
58983;DHT22;44771;49.982;8.560;2022-11-15T11:43:25;12.50;99.90
58983;DHT22;44771;49.982;8.560;2022-11-15T11:48:40;12.60;99.90
58983;DHT22;44771;49.982;8.560;2022-11-15T11:53:47;12.60;99.90
58983;DHT22;44771;49.982;8.560;2022-11-15T11:58:54;12.70;99.90
58983;DHT22;44771;49.982;8.560;2022-11-15T12:04:03;12.80;99.90
58983;DHT22;44771;49.982;8.560;2022-11-15T12:09:13;13.10;99.90
58983;DHT22;44771;49.982;8.560;2022-11-15T12:14:31;13.10;99.90
58983;DHT22;44771;49.982;8.560;2022-11-15T12:25:27;13.30;99.90
58983;DHT22;44771;49.982;8.560;2022-11-15T12:31:00;13.50;99.90
58983;DHT22;44771;49.982;8.560;2022-11-15T12:41:43;13.40;99.90
58983;DHT22;44771;49.982;8.560;2022-11-15T12:47:02;13.30;99.90
58983;DHT22;44771;49.982;8.560;2022-11-15T12:52:08;13.20;99.90
58983;DHT22;44771;49.982;8.560;2022-11-15T12:57:44;13.00;99.90
58983;DHT22;44771;49.982;8.560;2022-11-15T13:02:47;13.00;99.90
58983;DHT22;44771;49.982;8.560;2022-11-15T13:07:56;12.80;99.90
58983;DHT22;44771;49.982;8.560;2022-11-15T13:13:02;12.80;99.90
58983;DHT22;44771;49.982;8.560;2022-11-15T13:23:54;12.90;99.90
58983;DHT22;44771;49.982;8.560;2022-11-15T13:29:01;12.90;99.90
58983;DHT22;44771;49.982;8.560;2022-11-15T13:34:21;12.90;99.90
58983;DHT22;44771;49.982;8.560;2022-11-15T13:39:44;12.90;99.90
58983;DHT22;44771;49.982;8.560;2022-11-15T13:44:57;12.90;99.90
58983;DHT22;44771;49.982;8.560;2022-11-15T13:49:59;12.90;99.90
58983;DHT22;44771;49.982;8.560;2022-11-15T13:55:04;13.00;99.90
58983;DHT22;44771;49.982;8.560;2022-11-15T14:00:30;13.00;99.90
58983;DHT22;44771;49.982;8.560;2022-11-15T14:05:33;12.90;99.90
58983;DHT22;44771;49.982;8.560;2022-11-15T14:10:36;12.90;99.90
58983;DHT22;44771;49.982;8.560;2022-11-15T14:15:40;12.90;99.90
58983;DHT22;44771;49.982;8.560;2022-11-15T14:20:42;12.80;99.90
58983;DHT22;44771;49.982;8.560;2022-11-15T14:31:27;12.80;99.90
58983;DHT22;44771;49.982;8.560;2022-11-15T14:36:29;12.70;99.90
58983;DHT22;44771;49.982;8.560;2022-11-15T14:52:55;12.70;99.90
58983;DHT22;44771;49.982;8.560;2022-11-15T14:58:12;12.70;99.90
58983;DHT22;44771;49.982;8.560;2022-11-15T15:03:40;12.70;99.90
58983;DHT22;44771;49.982;8.560;2022-11-15T15:09:27;12.70;99.90
58983;DHT22;44771;49.982;8.560;2022-11-15T15:25:18;12.40;99.90
58983;DHT22;44771;49.982;8.560;2022-11-15T15:30:32;12.40;99.90
58983;DHT22;44771;49.982;8.560;2022-11-15T15:35:35;12.10;99.90
58983;DHT22;44771;49.982;8.560;2022-11-15T15:40:46;12.10;99.90
58983;DHT22;44771;49.982;8.560;2022-11-15T15:45:55;11.80;99.90
58983;DHT22;44771;49.982;8.560;2022-11-15T15:56:46;11.60;99.90
58983;DHT22;44771;49.982;8.560;2022-11-15T16:45:04;10.50;99.90
58983;DHT22;44771;49.982;8.560;2022-11-15T16:50:17;10.40;99.90
58983;DHT22;44771;49.982;8.560;2022-11-15T17:00:58;10.20;99.90
58983;DHT22;44771;49.982;8.560;2022-11-15T17:06:04;10.00;99.90
58983;DHT22;44771;49.982;8.560;2022-11-15T17:11:14;9.90;99.90
58983;DHT22;44771;49.982;8.560;2022-11-15T17:16:19;9.90;99.90
58983;DHT22;44771;49.982;8.560;2022-11-15T17:55:02;9.70;99.90
58983;DHT22;44771;49.982;8.560;2022-11-15T18:00:24;9.60;99.90
58983;DHT22;44771;49.982;8.560;2022-11-15T18:05:40;9.70;99.90
58983;DHT22;44771;49.982;8.560;2022-11-15T18:11:23;9.80;99.90
58983;DHT22;44771;49.982;8.560;2022-11-15T18:16:41;9.80;99.90
58983;DHT22;44771;49.982;8.560;2022-11-15T18:21:51;10.00;99.90
58983;DHT22;44771;49.982;8.560;2022-11-15T18:32:54;9.70;99.90
58983;DHT22;44771;49.982;8.560;2022-11-15T19:47:53;9.30;99.90
58983;DHT22;44771;49.982;8.560;2022-11-15T22:27:10;9.10;99.90
58983;DHT22;44771;49.982;8.560;2022-11-15T22:37:54;9.20;99.90
58983;DHT22;44771;49.982;8.560;2022-11-15T22:42:58;9.20;99.90
58983;DHT22;44771;49.982;8.560;2022-11-15T22:48:05;9.20;99.90
58983;DHT22;44771;49.982;8.560;2022-11-15T22:53:12;9.20;99.90
58983;DHT22;44771;49.982;8.560;2022-11-15T22:58:36;9.10;99.90
58983;DHT22;44771;49.982;8.560;2022-11-15T23:03:48;9.10;99.90
58983;DHT22;44771;49.982;8.560;2022-11-15T23:08:55;9.10;99.90
58983;DHT22;44771;49.982;8.560;2022-11-15T23:14:03;9.00;99.90
58983;DHT22;44771;49.982;8.560;2022-11-15T23:19:10;9.00;99.90
58983;DHT22;44771;49.982;8.560;2022-11-15T23:24:14;9.00;99.90
58983;DHT22;44771;49.982;8.560;2022-11-15T23:29:31;9.00;99.90
58983;DHT22;44771;49.982;8.560;2022-11-15T23:34:44;9.10;99.90
58983;DHT22;44771;49.982;8.560;2022-11-15T23:39:47;9.00;99.90
58983;DHT22;44771;49.982;8.560;2022-11-15T23:44:53;9.00;99.90
58983;DHT22;44771;49.982;8.560;2022-11-15T23:49:55;9.00;99.90
58983;DHT22;44771;49.982;8.560;2022-11-15T23:54:57;9.00;99.90
